Milan Army Ammunition Plant, Tennessee
Current Conditions -  °F | °C
As of 2:53 AM on Monday 24 Nov 2014 (Local Time) from KMKL Reporting Station
Overcast Overcast  
Wind Chill: 61°   Ceiling: 4000
Heat Index: 61°   Visibility: 10mi
Dew Point: 52°   Wind: 21mph
Humidity: 72%   Direction: 220°SW
Pressure: 29.46"   Gusts: 30mph
Location:  35.9258°N, 88.7624°W
Report Text: KMKL 240853Z AUTO 22018G26KT 10SM SCT032 BKN040 OVC047 16/11 A2946 RMK AO2 PK WND 21026/0851 SLP972 6//// T01610111 53007 $
Loading
Personal Weather Stations






























Interactive Weather Map New forecast layout! Learn more

10-Day Weather Forecast

Advertisements
Track Severe Weather on mobile